METAR Data
IDs: Format: Raw Decoded Include TAF

Data at: 1844 UTC 26 Oct 2021

KHMP 261835Z AUTO 33005KT 10SM CLR 19/09 A2992 RMK AO2 T01900089